Time;durP1;ratioP1;P1;durP2;ratioP2;P2;SDS_P1;SDS_P2;PMS_P1;PMS_P2;Temp;Humidity;BMP_temperature;BMP_pressure;BME280_temperature;BME280_humidity;BME280_pressure;Samples;Min_cycle;Max_cycle;Signal;HPM_P1;HPM_P2
2022/06/11 00:00:38;;;;;;;2.67;2.47;;;;;;;;;;5065499;28;20524;-70
2022/06/11 00:03:04;;;;;;;2.53;2.10;;;;;;;;;;5065246;28;20235;-70
2022/06/11 00:05:30;;;;;;;4.18;2.60;;;;;;;;;;5065108;28;20233;-70
2022/06/11 00:07:57;;;;;;;2.67;2.30;;;;;;;;;;5063924;28;20201;-70
2022/06/11 00:10:24;;;;;;;6.25;2.65;;;;;;;;;;5065064;28;20236;-70
2022/06/11 00:12:50;;;;;;;4.78;2.60;;;;;;;;;;5065258;28;20204;-70
2022/06/11 00:15:17;;;;;;;4.35;2.80;;;;;;;;;;5065075;28;20197;-70
2022/06/11 00:17:44;;;;;;;2.97;2.78;;;;;;;;;;5064871;28;20217;-70
2022/06/11 00:20:11;;;;;;;2.85;2.65;;;;;;;;;;5065093;28;20197;-70
2022/06/11 00:22:37;;;;;;;3.30;3.00;;;;;;;;;;5064657;28;20204;-70
2022/06/11 00:25:04;;;;;;;2.60;2.40;;;;;;;;;;5065108;28;20197;-70
2022/06/11 00:27:30;;;;;;;3.28;2.60;;;;;;;;;;5064790;28;20378;-70
2022/06/11 00:29:57;;;;;;;5.10;2.95;;;;;;;;;;5064968;28;20197;-70
2022/06/11 00:32:24;;;;;;;3.25;2.95;;;;;;;;;;5064784;28;20201;-70
2022/06/11 00:34:51;;;;;;;3.03;2.83;;;;;;;;;;5064686;28;20197;-70
2022/06/11 00:37:18;;;;;;;3.15;2.95;;;;;;;;;;5064241;28;20228;-70
2022/06/11 00:39:45;;;;;;;5.18;2.72;;;;;;;;;;5064323;28;20397;-70
2022/06/11 00:42:14;;;;;;;3.47;2.88;;;;;;;;;;5064635;28;20197;-70
2022/06/11 00:44:40;;;;;;;3.15;2.92;;;;;;;;;;5064662;28;20237;-70
2022/06/11 00:47:07;;;;;;;3.22;2.78;;;;;;;;;;5064312;28;20196;-70
2022/06/11 00:49:38;;;;;;;3.50;2.95;;;;;;;;;;5064382;28;20201;-70
2022/06/11 00:52:17;;;;;;;4.05;3.15;;;;;;;;;;5064689;28;20197;-70
2022/06/11 00:54:45;;;;;;;3.15;2.95;;;;;;;;;;5064541;28;20197;-70
2022/06/11 00:57:12;;;;;;;3.17;2.88;;;;;;;;;;5064022;28;20213;-70
2022/06/11 00:59:41;;;;;;;4.05;3.17;;;;;;;;;;5064335;28;20379;-70
2022/06/11 01:02:08;;;;;;;3.20;2.78;;;;;;;;;;5064144;28;20388;-70
2022/06/11 01:04:44;;;;;;;5.90;3.20;;;;;;;;;;5064204;28;20520;-70
2022/06/11 01:07:25;;;;;;;6.15;3.13;;;;;;;;;;5064108;28;20193;-70
2022/06/11 01:09:57;;;;;;;5.60;3.05;;;;;;;;;;5055303;28;20399;-70
2022/06/11 01:12:27;;;;;;;5.53;3.10;;;;;;;;;;5064077;28;20493;-70
2022/06/11 01:14:59;;;;;;;3.33;2.97;;;;;;;;;;5063951;28;20225;-70
2022/06/11 01:17:29;;;;;;;3.58;2.75;;;;;;;;;;5063867;28;20528;-70
2022/06/11 01:20:09;;;;;;;3.13;3.00;;;;;;;;;;5064229;28;20190;-70
2022/06/11 01:22:41;;;;;;;3.28;2.63;;;;;;;;;;5063944;28;20197;-70
2022/06/11 01:25:11;;;;;;;4.30;2.70;;;;;;;;;;5063720;28;20591;-70
2022/06/11 01:27:44;;;;;;;3.00;2.80;;;;;;;;;;5063781;28;20501;-70
2022/06/11 01:30:13;;;;;;;3.88;2.50;;;;;;;;;;5063777;28;20563;-70
2022/06/11 01:32:43;;;;;;;2.83;2.58;;;;;;;;;;5063746;28;20204;-70
2022/06/11 01:35:17;;;;;;;4.93;3.15;;;;;;;;;;5063578;28;20232;-70
2022/06/11 01:37:46;;;;;;;3.25;2.63;;;;;;;;;;5063180;28;20283;-70
2022/06/11 01:40:15;;;;;;;4.53;3.22;;;;;;;;;;5063745;28;20201;-70
2022/06/11 01:42:43;;;;;;;2.60;2.50;;;;;;;;;;5062783;28;20205;-70
2022/06/11 01:45:15;;;;;;;4.60;2.65;;;;;;;;;;5063497;28;20388;-70
2022/06/11 01:47:42;;;;;;;2.88;2.60;;;;;;;;;;5063285;28;20194;-70
2022/06/11 01:50:09;;;;;;;3.30;2.75;;;;;;;;;;5063490;28;20197;-70
2022/06/11 01:52:48;;;;;;;4.78;3.15;;;;;;;;;;5062521;28;20396;-70
2022/06/11 01:55:18;;;;;;;6.18;2.88;;;;;;;;;;5063320;28;20196;-70
2022/06/11 01:57:51;;;;;;;4.88;3.03;;;;;;;;;;5062990;28;20379;-70
2022/06/11 02:00:20;;;;;;;2.70;2.58;;;;;;;;;;5063175;28;20185;-70
2022/06/11 02:02:54;;;;;;;6.63;2.53;;;;;;;;;;5063080;28;20201;-70
2022/06/11 02:05:22;;;;;;;2.92;2.38;;;;;;;;;;5062983;28;20225;-70
2022/06/11 02:07:59;;;;;;;2.60;2.40;;;;;;;;;;5062825;28;20523;-70
2022/06/11 02:10:28;;;;;;;2.72;2.53;;;;;;;;;;5062942;28;20204;-70
2022/06/11 02:12:58;;;;;;;2.88;2.58;;;;;;;;;;5063108;28;20522;-70
2022/06/11 02:15:32;;;;;;;5.63;2.95;;;;;;;;;;5063036;28;20197;-70
2022/06/11 02:18:01;;;;;;;2.83;2.60;;;;;;;;;;5062667;28;20216;-70
2022/06/11 02:20:30;;;;;;;5.82;2.78;;;;;;;;;;5062740;28;20197;-70
2022/06/11 02:22:59;;;;;;;3.70;2.97;;;;;;;;;;5063077;28;20212;-70
2022/06/11 02:25:26;;;;;;;2.95;2.75;;;;;;;;;;5062934;28;20399;-70
2022/06/11 02:27:54;;;;;;;2.78;2.63;;;;;;;;;;5062934;28;20515;-70
2022/06/11 02:30:22;;;;;;;8.70;3.50;;;;;;;;;;5062787;28;20201;-70
2022/06/11 02:32:50;;;;;;;2.78;2.63;;;;;;;;;;5062575;28;20204;-70
2022/06/11 02:35:25;;;;;;;4.20;2.50;;;;;;;;;;5062547;28;20203;-70
2022/06/11 02:37:51;;;;;;;3.20;3.00;;;;;;;;;;5062552;28;20216;-70
2022/06/11 02:40:19;;;;;;;4.57;3.13;;;;;;;;;;5062533;28;20205;-70
2022/06/11 02:42:46;;;;;;;3.72;2.53;;;;;;;;;;5062602;28;20204;-70
2022/06/11 02:45:13;;;;;;;5.75;3.03;;;;;;;;;;5062531;28;20208;-70
2022/06/11 02:47:40;;;;;;;4.40;2.72;;;;;;;;;;5062049;28;20192;-70
2022/06/11 02:50:08;;;;;;;2.65;2.53;;;;;;;;;;5062232;28;20203;-70
2022/06/11 02:52:35;;;;;;;3.25;2.80;;;;;;;;;;5062548;28;20504;-70
2022/06/11 02:55:02;;;;;;;3.35;2.58;;;;;;;;;;5062468;28;20197;-70
2022/06/11 02:57:30;;;;;;;3.40;2.67;;;;;;;;;;5062046;28;20240;-70
2022/06/11 02:59:57;;;;;;;3.38;3.05;;;;;;;;;;5062365;28;20204;-70
2022/06/11 03:02:24;;;;;;;3.33;2.83;;;;;;;;;;5061991;28;20197;-70
2022/06/11 03:04:51;;;;;;;3.17;3.08;;;;;;;;;;5062203;28;20557;-70
2022/06/11 03:07:18;;;;;;;3.63;2.28;;;;;;;;;;5062134;28;20200;-70
2022/06/11 03:09:45;;;;;;;3.13;2.63;;;;;;;;;;5062166;28;20201;-70
2022/06/11 03:12:12;;;;;;;4.40;2.90;;;;;;;;;;5062186;28;20201;-70
2022/06/11 03:14:41;;;;;;;2.75;2.40;;;;;;;;;;5062113;28;20423;-70
2022/06/11 03:17:08;;;;;;;3.20;2.92;;;;;;;;;;5062113;28;20228;-70
2022/06/11 03:19:34;;;;;;;2.83;2.60;;;;;;;;;;5062085;28;20197;-70
2022/06/11 03:22:01;;;;;;;2.72;2.55;;;;;;;;;;5062001;28;20211;-70
2022/06/11 03:24:28;;;;;;;3.50;2.70;;;;;;;;;;5062079;28;20497;-70
2022/06/11 03:26:55;;;;;;;4.85;2.75;;;;;;;;;;5061821;28;20193;-70
2022/06/11 03:29:22;;;;;;;3.00;2.80;;;;;;;;;;5061926;28;20216;-70
2022/06/11 03:31:48;;;;;;;3.35;3.15;;;;;;;;;;5061748;28;20197;-70
2022/06/11 03:34:15;;;;;;;3.67;3.22;;;;;;;;;;5062067;28;20322;-70
2022/06/11 03:36:42;;;;;;;3.23;3.03;;;;;;;;;;5061629;28;20396;-70
2022/06/11 03:39:09;;;;;;;3.40;2.78;;;;;;;;;;5061832;28;20242;-70
2022/06/11 03:41:37;;;;;;;3.13;2.88;;;;;;;;;;5061829;28;20407;-70
2022/06/11 03:44:03;;;;;;;2.78;2.65;;;;;;;;;;5061876;28;20205;-70
2022/06/11 03:46:29;;;;;;;5.60;3.40;;;;;;;;;;5061344;28;20509;-70
2022/06/11 03:48:56;;;;;;;4.60;3.70;;;;;;;;;;5061952;28;20194;-70
2022/06/11 03:51:22;;;;;;;3.10;3.00;;;;;;;;;;5061792;28;20496;-70
2022/06/11 03:53:49;;;;;;;4.60;3.70;;;;;;;;;;5061713;28;20197;-70
2022/06/11 03:56:16;;;;;;;3.58;3.30;;;;;;;;;;5061412;28;20220;-70
2022/06/11 03:58:44;;;;;;;4.22;3.33;;;;;;;;;;5061542;28;20532;-70
2022/06/11 04:01:16;;;;;;;7.13;6.38;;;;;;;;;;5061915;28;20201;-70
2022/06/11 04:03:43;;;;;;;4.00;3.33;;;;;;;;;;5061612;28;20197;-70
2022/06/11 04:06:10;;;;;;;4.13;3.40;;;;;;;;;;5061201;28;20568;-70
2022/06/11 04:08:37;;;;;;;5.53;3.30;;;;;;;;;;5061646;28;20453;-70
2022/06/11 04:11:04;;;;;;;3.30;3.10;;;;;;;;;;5062097;28;20204;-70
2022/06/11 04:13:31;;;;;;;4.68;3.50;;;;;;;;;;5061355;28;20197;-70
2022/06/11 04:15:59;;;;;;;4.03;3.67;;;;;;;;;;5063705;28;20212;-70
2022/06/11 04:18:29;;;;;;;4.90;3.45;;;;;;;;;;5065240;28;20414;-70
2022/06/11 04:20:55;;;;;;;3.35;3.15;;;;;;;;;;5065238;28;20411;-70
2022/06/11 04:23:24;;;;;;;3.80;3.50;;;;;;;;;;5065025;28;20197;-70
2022/06/11 04:25:50;;;;;;;3.75;3.42;;;;;;;;;;5064908;28;20396;-70
2022/06/11 04:28:16;;;;;;;3.33;3.17;;;;;;;;;;5064932;28;20197;-70
2022/06/11 04:30:43;;;;;;;3.45;3.17;;;;;;;;;;5065136;28;20201;-70
2022/06/11 04:33:10;;;;;;;8.27;3.50;;;;;;;;;;5065057;28;20197;-70
2022/06/11 04:35:37;;;;;;;6.93;3.72;;;;;;;;;;5064916;28;20204;-70
2022/06/11 04:38:03;;;;;;;3.28;3.00;;;;;;;;;;5064552;28;20239;-70
2022/06/11 04:40:29;;;;;;;4.05;3.03;;;;;;;;;;5065185;28;20220;-70
2022/06/11 04:42:56;;;;;;;5.00;2.90;;;;;;;;;;5064658;28;20267;-70
2022/06/11 04:45:22;;;;;;;3.42;3.13;;;;;;;;;;5064708;28;20197;-70
2022/06/11 04:47:48;;;;;;;3.58;3.33;;;;;;;;;;5064595;28;20500;-70
2022/06/11 04:50:17;;;;;;;4.25;3.17;;;;;;;;;;5064706;28;20197;-70
2022/06/11 04:52:43;;;;;;;4.10;3.30;;;;;;;;;;5064585;28;20527;-70
2022/06/11 04:55:10;;;;;;;3.55;3.25;;;;;;;;;;5064360;28;20197;-70
2022/06/11 04:57:36;;;;;;;4.15;3.88;;;;;;;;;;5064447;28;20536;-70
2022/06/11 05:00:04;;;;;;;4.20;3.70;;;;;;;;;;5064513;28;20204;-70
2022/06/11 05:02:30;;;;;;;3.90;3.70;;;;;;;;;;5064340;28;20209;-70
2022/06/11 05:04:56;;;;;;;4.93;3.30;;;;;;;;;;5064368;28;20225;-70
2022/06/11 05:07:25;;;;;;;4.00;3.45;;;;;;;;;;5064111;28;20224;-70
2022/06/11 05:09:51;;;;;;;3.88;3.67;;;;;;;;;;5064239;28;20209;-70
2022/06/11 05:12:18;;;;;;;3.78;3.45;;;;;;;;;;5064343;28;20201;-70
2022/06/11 05:14:44;;;;;;;6.40;3.70;;;;;;;;;;5064031;28;20196;-70
2022/06/11 05:17:10;;;;;;;6.95;6.22;;;;;;;;;;5064287;28;20380;-70
2022/06/11 05:19:37;;;;;;;4.43;3.97;;;;;;;;;;5064137;28;20203;-70
2022/06/11 05:22:03;;;;;;;5.30;4.30;;;;;;;;;;5064440;28;20212;-70
2022/06/11 05:24:31;;;;;;;5.28;4.78;;;;;;;;;;5063999;28;20407;-70
2022/06/11 05:26:59;;;;;;;4.15;3.80;;;;;;;;;;5063722;28;20415;-70
2022/06/11 05:29:27;;;;;;;4.15;3.78;;;;;;;;;;5063840;28;20208;-70
2022/06/11 05:31:53;;;;;;;4.18;3.70;;;;;;;;;;5063988;28;20203;-70
2022/06/11 05:34:19;;;;;;;4.85;4.45;;;;;;;;;;5063870;28;20497;-70
2022/06/11 05:36:46;;;;;;;3.85;3.58;;;;;;;;;;5063423;28;20197;-70
2022/06/11 05:39:12;;;;;;;4.30;3.90;;;;;;;;;;5063929;28;20582;-70
2022/06/11 05:41:40;;;;;;;4.20;3.80;;;;;;;;;;5063889;28;20197;-70
2022/06/11 05:44:06;;;;;;;3.60;3.30;;;;;;;;;;5063754;28;20498;-70
2022/06/11 05:46:34;;;;;;;3.40;3.20;;;;;;;;;;5063378;28;20207;-70
2022/06/11 05:49:02;;;;;;;3.45;3.08;;;;;;;;;;5063481;28;20199;-71
2022/06/11 05:51:31;;;;;;;3.75;3.25;;;;;;;;;;5063635;28;20201;-70
2022/06/11 05:54:01;;;;;;;5.10;3.70;;;;;;;;;;5063508;28;20391;-70
2022/06/11 05:56:28;;;;;;;3.80;3.50;;;;;;;;;;5063036;28;20197;-70
2022/06/11 05:58:58;;;;;;;4.50;2.95;;;;;;;;;;5063079;28;20217;-70
2022/06/11 06:01:26;;;;;;;3.70;3.13;;;;;;;;;;5063044;28;20205;-70
2022/06/11 06:03:53;;;;;;;3.13;2.92;;;;;;;;;;5062859;28;20203;-70
2022/06/11 06:06:19;;;;;;;3.17;2.97;;;;;;;;;;5062321;28;20225;-70
2022/06/11 06:08:45;;;;;;;7.88;3.15;;;;;;;;;;5062577;28;20493;-70
2022/06/11 06:11:12;;;;;;;3.20;2.90;;;;;;;;;;5062756;28;20197;-70
2022/06/11 06:13:47;;;;;;;3.35;3.00;;;;;;;;;;5056055;28;20205;-69
2022/06/11 06:16:14;;;;;;;3.40;3.20;;;;;;;;;;5057952;28;20283;-70
2022/06/11 06:18:41;;;;;;;2.97;2.75;;;;;;;;;;5053415;28;20572;-70
2022/06/11 06:21:07;;;;;;;6.95;3.10;;;;;;;;;;5057354;28;20204;-70
2022/06/11 06:23:34;;;;;;;5.30;2.80;;;;;;;;;;5062181;28;20339;-70
2022/06/11 06:26:00;;;;;;;3.10;2.83;;;;;;;;;;5062610;28;20203;-70
2022/06/11 06:28:27;;;;;;;5.60;2.75;;;;;;;;;;5062701;28;20194;-70
2022/06/11 06:30:53;;;;;;;2.80;2.60;;;;;;;;;;5062540;28;20415;-70
2022/06/11 06:33:21;;;;;;;3.03;2.83;;;;;;;;;;5062873;28;20526;-69
2022/06/11 06:35:47;;;;;;;3.17;2.78;;;;;;;;;;5062742;28;20235;-69
2022/06/11 06:38:16;;;;;;;4.10;2.90;;;;;;;;;;5062082;28;20647;-69
2022/06/11 06:40:43;;;;;;;2.85;2.65;;;;;;;;;;5061503;28;20211;-70
2022/06/11 06:43:09;;;;;;;3.30;3.00;;;;;;;;;;5061686;28;20220;-70
2022/06/11 06:45:36;;;;;;;4.82;3.13;;;;;;;;;;5061955;28;20204;-70
2022/06/11 06:48:02;;;;;;;2.60;2.50;;;;;;;;;;5062348;28;20200;-69
2022/06/11 06:50:30;;;;;;;3.60;3.00;;;;;;;;;;5062827;28;20234;-69
2022/06/11 06:52:56;;;;;;;3.13;2.78;;;;;;;;;;5062584;28;20197;-70
2022/06/11 06:55:23;;;;;;;3.55;3.00;;;;;;;;;;5062534;28;20397;-70
2022/06/11 06:57:49;;;;;;;2.45;2.35;;;;;;;;;;5061919;28;20197;-70
2022/06/11 07:00:17;;;;;;;2.85;2.60;;;;;;;;;;5062334;28;20211;-69
2022/06/11 07:02:44;;;;;;;3.25;2.40;;;;;;;;;;5062422;28;20204;-70
2022/06/11 07:05:10;;;;;;;2.63;2.45;;;;;;;;;;5062570;28;20563;-70
2022/06/11 07:07:38;;;;;;;2.58;2.38;;;;;;;;;;5062032;28;20201;-70
2022/06/11 07:10:05;;;;;;;4.20;2.60;;;;;;;;;;5062231;28;20193;-70
2022/06/11 07:12:31;;;;;;;4.28;2.92;;;;;;;;;;5061958;28;20204;-70
2022/06/11 07:14:58;;;;;;;2.53;2.30;;;;;;;;;;5062473;28;20391;-70
2022/06/11 07:17:25;;;;;;;2.53;2.33;;;;;;;;;;5064087;28;20264;-70
2022/06/11 07:19:53;;;;;;;2.40;2.20;;;;;;;;;;5062833;28;20227;-70
2022/06/11 07:22:22;;;;;;;2.85;2.33;;;;;;;;;;5062178;28;20203;-70
2022/06/11 07:24:50;;;;;;;4.10;2.90;;;;;;;;;;5062214;28;20212;-70
2022/06/11 07:27:18;;;;;;;2.67;2.47;;;;;;;;;;5061771;28;20212;-70
2022/06/11 07:29:47;;;;;;;3.55;2.47;;;;;;;;;;5062058;28;20221;-70
2022/06/11 07:32:17;;;;;;;4.03;2.30;;;;;;;;;;5062216;28;20197;-70
2022/06/11 07:34:43;;;;;;;3.25;2.10;;;;;;;;;;5062073;28;20197;-70
2022/06/11 07:37:10;;;;;;;2.85;2.60;;;;;;;;;;5061687;28;20196;-61
2022/06/11 07:39:36;;;;;;;3.33;2.10;;;;;;;;;;5061610;28;20216;-61
2022/06/11 07:42:04;;;;;;;2.30;1.83;;;;;;;;;;5061899;28;20205;-61
2022/06/11 07:44:31;;;;;;;5.18;2.25;;;;;;;;;;5062134;28;20205;-62
2022/06/11 07:46:57;;;;;;;2.58;2.00;;;;;;;;;;5061700;28;20496;-62
2022/06/11 07:49:23;;;;;;;4.05;2.45;;;;;;;;;;5061955;28;20493;-61
2022/06/11 07:51:51;;;;;;;5.28;2.40;;;;;;;;;;5065636;28;20204;-61
2022/06/11 07:54:17;;;;;;;2.22;2.05;;;;;;;;;;5065484;28;20225;-61
2022/06/11 07:56:44;;;;;;;4.70;2.15;;;;;;;;;;5065200;28;20213;-62
2022/06/11 07:59:11;;;;;;;3.03;2.08;;;;;;;;;;5065526;28;20217;-62
2022/06/11 08:01:37;;;;;;;5.80;2.47;;;;;;;;;;5065534;28;20213;-62
2022/06/11 08:04:04;;;;;;;5.05;2.20;;;;;;;;;;5065342;28;20197;-62
2022/06/11 08:06:31;;;;;;;4.35;2.10;;;;;;;;;;5065057;28;20259;-61
2022/06/11 08:08:57;;;;;;;4.57;2.17;;;;;;;;;;5065173;28;20193;-61
2022/06/11 08:11:24;;;;;;;5.70;2.10;;;;;;;;;;5065334;28;20197;-62
2022/06/11 08:13:50;;;;;;;2.60;1.92;;;;;;;;;;5065342;28;20234;-62
2022/06/11 08:16:18;;;;;;;3.22;2.10;;;;;;;;;;5064800;28;20554;-61
2022/06/11 08:18:45;;;;;;;4.68;2.40;;;;;;;;;;5065054;28;20224;-60
2022/06/11 08:21:11;;;;;;;4.63;1.92;;;;;;;;;;5065088;28;20392;-61
2022/06/11 08:23:39;;;;;;;2.33;2.13;;;;;;;;;;5064946;28;20197;-62
2022/06/11 08:26:06;;;;;;;4.90;1.65;;;;;;;;;;5064948;28;20197;-62
2022/06/11 08:28:32;;;;;;;5.20;2.00;;;;;;;;;;5065025;28;20193;-61
2022/06/11 08:30:58;;;;;;;3.67;1.80;;;;;;;;;;5065041;28;20204;-62
2022/06/11 08:33:26;;;;;;;1.88;1.58;;;;;;;;;;5064846;28;20204;-62
2022/06/11 08:35:52;;;;;;;2.85;1.30;;;;;;;;;;5064676;28;20401;-62
2022/06/11 08:38:18;;;;;;;1.13;1.10;;;;;;;;;;5064721;28;20204;-61
2022/06/11 08:40:46;;;;;;;1.27;1.25;;;;;;;;;;5064910;28;20212;-61
2022/06/11 08:43:16;;;;;;;1.13;1.10;;;;;;;;;;5064524;28;20220;-60
2022/06/11 08:45:44;;;;;;;1.88;1.40;;;;;;;;;;5064626;28;20197;-61
2022/06/11 08:48:13;;;;;;;3.35;1.25;;;;;;;;;;5064497;28;20513;-61
2022/06/11 08:50:43;;;;;;;3.20;1.33;;;;;;;;;;5064512;28;20220;-61
2022/06/11 08:53:09;;;;;;;1.98;1.15;;;;;;;;;;5064732;28;20204;-60
2022/06/11 08:55:37;;;;;;;1.27;1.20;;;;;;;;;;5064354;28;20204;-61
2022/06/11 08:58:09;;;;;;;5.28;1.30;;;;;;;;;;5063983;28;20201;-61
2022/06/11 09:00:40;;;;;;;2.33;0.98;;;;;;;;;;5063851;28;20224;-61
2022/06/11 09:03:21;;;;;;;4.95;1.40;;;;;;;;;;5064133;28;20197;-61
2022/06/11 09:06:02;;;;;;;1.35;1.25;;;;;;;;;;5064148;28;20231;-61
2022/06/11 09:08:39;;;;;;;3.38;1.63;;;;;;;;;;5062152;28;20203;-61
2022/06/11 09:11:10;;;;;;;2.38;1.40;;;;;;;;;;5064089;28;20196;-61
2022/06/11 09:13:43;;;;;;;20.80;11.73;;;;;;;;;;5064278;28;20196;-61
2022/06/11 09:16:14;;;;;;;2.00;1.73;;;;;;;;;;5063879;28;20197;-61
2022/06/11 09:18:52;;;;;;;2.15;1.27;;;;;;;;;;5064049;28;20204;-61
2022/06/11 09:21:26;;;;;;;7.10;4.50;;;;;;;;;;5063970;28;20201;-61
2022/06/11 09:24:04;;;;;;;2.67;1.15;;;;;;;;;;5063723;28;20394;-61
2022/06/11 09:26:38;;;;;;;1.73;1.08;;;;;;;;;;5063523;28;20200;-61
2022/06/11 09:29:10;;;;;;;7.30;3.85;;;;;;;;;;5064021;28;20193;-61
2022/06/11 09:31:38;;;;;;;6.95;3.83;;;;;;;;;;5063799;28;20197;-61
2022/06/11 09:34:08;;;;;;;3.90;1.30;;;;;;;;;;5063556;28;20204;-61
2022/06/11 09:36:37;;;;;;;5.75;1.85;;;;;;;;;;5063706;28;20197;-60
2022/06/11 09:39:08;;;;;;;1.85;1.00;;;;;;;;;;5063503;28;20230;-61
2022/06/11 09:41:41;;;;;;;2.45;1.10;;;;;;;;;;5063501;28;20203;-60
2022/06/11 09:44:16;;;;;;;3.50;1.20;;;;;;;;;;5063689;28;20504;-61
2022/06/11 09:46:44;;;;;;;2.13;1.27;;;;;;;;;;5063049;28;20197;-60
2022/06/11 09:49:17;;;;;;;3.85;1.00;;;;;;;;;;5063365;28;20197;-59
2022/06/11 09:51:48;;;;;;;4.30;1.15;;;;;;;;;;5063457;28;20203;-61
2022/06/11 09:54:28;;;;;;;1.90;1.25;;;;;;;;;;5063176;28;20197;-62
2022/06/11 09:57:01;;;;;;;1.17;1.05;;;;;;;;;;5062874;28;20211;-61
2022/06/11 09:59:30;;;;;;;1.98;0.82;;;;;;;;;;5063068;28;20554;-60
2022/06/11 10:02:00;;;;;;;1.50;1.00;;;;;;;;;;5063305;28;20207;-61
2022/06/11 10:04:28;;;;;;;3.55;1.27;;;;;;;;;;5063180;28;20275;-61
2022/06/11 10:06:56;;;;;;;1.50;1.00;;;;;;;;;;5062759;28;20223;-62
2022/06/11 10:09:26;;;;;;;2.97;1.02;;;;;;;;;;5062962;28;20499;-62
2022/06/11 10:11:55;;;;;;;3.03;1.15;;;;;;;;;;5062632;28;20455;-62
2022/06/11 10:14:29;;;;;;;3.65;0.95;;;;;;;;;;5062472;28;20201;-62
2022/06/11 10:16:57;;;;;;;8.23;2.65;;;;;;;;;;5062850;28;20519;-62
2022/06/11 10:19:26;;;;;;;1.30;1.15;;;;;;;;;;5062791;28;20218;-62
2022/06/11 10:21:56;;;;;;;2.75;1.00;;;;;;;;;;5062887;28;20197;-62
2022/06/11 10:24:24;;;;;;;1.67;1.00;;;;;;;;;;5062685;28;20204;-62
2022/06/11 10:26:52;;;;;;;1.40;0.82;;;;;;;;;;5062570;28;20231;-62
2022/06/11 10:29:21;;;;;;;2.53;1.27;;;;;;;;;;5062722;28;20201;-62
2022/06/11 10:31:50;;;;;;;6.07;1.30;;;;;;;;;;5063007;28;20258;-62
2022/06/11 10:34:18;;;;;;;3.20;1.17;;;;;;;;;;5062725;28;20211;-62
2022/06/11 10:36:47;;;;;;;3.75;1.08;;;;;;;;;;5062071;28;20197;-62
2022/06/11 10:39:18;;;;;;;1.50;0.85;;;;;;;;;;5062611;28;20419;-62
2022/06/11 10:41:49;;;;;;;2.88;1.45;;;;;;;;;;5062307;28;20196;-62
2022/06/11 10:44:20;;;;;;;1.88;1.48;;;;;;;;;;5062734;28;20207;-62
2022/06/11 10:46:46;;;;;;;3.92;1.30;;;;;;;;;;5062213;28;20195;-62
2022/06/11 10:49:14;;;;;;;3.92;1.10;;;;;;;;;;5062256;28;20381;-61
2022/06/11 10:51:41;;;;;;;2.45;1.17;;;;;;;;;;5062446;28;20500;-62
2022/06/11 10:54:10;;;;;;;2.40;1.30;;;;;;;;;;5062214;28;20204;-62
2022/06/11 10:56:39;;;;;;;1.38;1.00;;;;;;;;;;5062064;28;20212;-62
2022/06/11 10:59:12;;;;;;;3.15;1.20;;;;;;;;;;5062103;28;20196;-62
2022/06/11 11:01:41;;;;;;;1.60;1.08;;;;;;;;;;5062141;28;20196;-62
2022/06/11 11:04:19;;;;;;;1.80;1.33;;;;;;;;;;5061991;28;20496;-61
2022/06/11 11:06:45;;;;;;;1.20;1.10;;;;;;;;;;5062016;28;20220;-62
2022/06/11 11:09:13;;;;;;;4.38;1.08;;;;;;;;;;5062118;28;20211;-62
2022/06/11 11:11:42;;;;;;;3.40;1.00;;;;;;;;;;5062221;28;20196;-62
2022/06/11 11:14:16;;;;;;;2.70;0.98;;;;;;;;;;5062061;28;20479;-63
2022/06/11 11:16:47;;;;;;;3.40;1.10;;;;;;;;;;5062114;28;20203;-62
2022/06/11 11:19:15;;;;;;;4.28;1.42;;;;;;;;;;5061824;28;20259;-63
2022/06/11 11:21:49;;;;;;;5.30;1.40;;;;;;;;;;5062059;28;20200;-62
2022/06/11 11:24:17;;;;;;;4.72;1.30;;;;;;;;;;5063535;28;20280;-63
2022/06/11 11:26:46;;;;;;;2.55;1.10;;;;;;;;;;5065848;28;20209;-62
2022/06/11 11:29:15;;;;;;;2.55;1.30;;;;;;;;;;5066303;28;20200;-62
2022/06/11 11:31:43;;;;;;;3.33;1.23;;;;;;;;;;5066313;28;20203;-62
2022/06/11 11:34:14;;;;;;;1.75;1.38;;;;;;;;;;5066233;28;20201;-62
2022/06/11 11:36:41;;;;;;;1.17;1.10;;;;;;;;;;5065660;28;20559;-62
2022/06/11 11:39:23;;;;;;;4.75;1.50;;;;;;;;;;5065887;28;20204;-62
2022/06/11 11:41:52;;;;;;;4.15;1.50;;;;;;;;;;5066093;28;20200;-62
2022/06/11 11:44:21;;;;;;;5.13;1.48;;;;;;;;;;5065987;28;20393;-62
2022/06/11 11:46:49;;;;;;;3.83;1.00;;;;;;;;;;5065699;28;20197;-62
2022/06/11 11:49:18;;;;;;;3.70;1.35;;;;;;;;;;5065893;28;20205;-62
2022/06/11 11:51:45;;;;;;;2.25;1.40;;;;;;;;;;5065710;28;20196;-62
2022/06/11 11:54:14;;;;;;;2.45;1.20;;;;;;;;;;5065853;28;20287;-62
2022/06/11 11:56:42;;;;;;;4.18;1.10;;;;;;;;;;5065707;28;20196;-62
2022/06/11 11:59:12;;;;;;;1.88;0.80;;;;;;;;;;5065672;28;20197;-62
2022/06/11 12:01:39;;;;;;;2.35;1.35;;;;;;;;;;5065495;28;20239;-62
2022/06/11 12:04:08;;;;;;;1.15;1.05;;;;;;;;;;5065344;28;20197;-62
2022/06/11 12:06:35;;;;;;;0.93;0.90;;;;;;;;;;5059023;28;20225;-62
2022/06/11 12:09:03;;;;;;;5.35;1.33;;;;;;;;;;5054731;28;20196;-62
2022/06/11 12:11:34;;;;;;;2.78;1.10;;;;;;;;;;5055983;28;20255;-62
2022/06/11 12:14:01;;;;;;;1.92;1.20;;;;;;;;;;5055201;28;20194;-62
2022/06/11 12:16:28;;;;;;;3.92;1.17;;;;;;;;;;5056586;28;20207;-62
2022/06/11 12:18:58;;;;;;;2.75;1.42;;;;;;;;;;5064549;28;20192;-62
2022/06/11 12:21:25;;;;;;;2.05;1.05;;;;;;;;;;5059173;28;20406;-62
2022/06/11 12:23:54;;;;;;;2.25;1.10;;;;;;;;;;5065197;28;20207;-62
2022/06/11 12:26:22;;;;;;;2.15;1.10;;;;;;;;;;5064838;28;20200;-63
2022/06/11 12:28:53;;;;;;;1.10;1.00;;;;;;;;;;5065144;28;20196;-62
2022/06/11 12:31:19;;;;;;;3.33;1.30;;;;;;;;;;5064985;28;20196;-62
2022/06/11 12:33:47;;;;;;;3.25;1.15;;;;;;;;;;5065130;28;20203;-62
2022/06/11 12:36:17;;;;;;;1.75;1.02;;;;;;;;;;5063939;28;20201;-61
2022/06/11 12:38:49;;;;;;;2.22;1.02;;;;;;;;;;5064867;28;20201;-61
2022/06/11 12:41:33;;;;;;;1.90;1.50;;;;;;;;;;5064661;28;20227;-62
2022/06/11 12:44:07;;;;;;;1.88;1.05;;;;;;;;;;5064628;28;20219;-62
2022/06/11 12:46:38;;;;;;;2.53;1.25;;;;;;;;;;5064389;28;20200;-62
2022/06/11 12:49:15;;;;;;;1.67;0.98;;;;;;;;;;5064692;28;20204;-60
2022/06/11 12:51:49;;;;;;;3.13;1.15;;;;;;;;;;5064591;28;20192;-61
2022/06/11 12:54:19;;;;;;;2.80;1.15;;;;;;;;;;5064490;28;20188;-60
2022/06/11 12:57:04;;;;;;;2.35;1.20;;;;;;;;;;5064288;28;20200;-68
2022/06/11 12:59:43;;;;;;;2.47;1.00;;;;;;;;;;5064326;28;20197;-64
2022/06/11 13:02:18;;;;;;;3.42;1.10;;;;;;;;;;5064334;28;20429;-60
2022/06/11 13:04:53;;;;;;;1.75;1.30;;;;;;;;;;5063879;28;20211;-62
2022/06/11 13:07:25;;;;;;;5.68;1.17;;;;;;;;;;5064067;28;20238;-60
2022/06/11 13:10:01;;;;;;;1.65;1.15;;;;;;;;;;5064276;28;20550;-63
2022/06/11 13:12:32;;;;;;;1.25;1.10;;;;;;;;;;5064063;28;20219;-61
2022/06/11 13:15:07;;;;;;;1.70;1.00;;;;;;;;;;5063946;28;20432;-70
2022/06/11 13:17:42;;;;;;;5.43;1.10;;;;;;;;;;5064064;28;20200;-69
2022/06/11 13:20:13;;;;;;;2.83;0.98;;;;;;;;;;5063862;28;20216;-69
2022/06/11 13:22:43;;;;;;;4.68;1.15;;;;;;;;;;5050286;28;20197;-69
2022/06/11 13:25:17;;;;;;;1.98;1.08;;;;;;;;;;5043947;28;20368;-70
2022/06/11 13:27:50;;;;;;;1.73;1.13;;;;;;;;;;5043358;28;20205;-70
2022/06/11 13:30:21;;;;;;;2.80;1.27;;;;;;;;;;5043792;28;20439;-70
2022/06/11 13:32:53;;;;;;;2.25;1.10;;;;;;;;;;5043966;28;20197;-70
2022/06/11 13:35:26;;;;;;;1.33;1.10;;;;;;;;;;5043780;28;20204;-70
2022/06/11 13:37:59;;;;;;;4.40;1.20;;;;;;;;;;5043324;28;20213;-70
2022/06/11 13:40:34;;;;;;;2.80;1.05;;;;;;;;;;5043814;28;20411;-69
2022/06/11 13:43:05;;;;;;;1.40;1.10;;;;;;;;;;5043675;28;20196;-70
2022/06/11 13:45:42;;;;;;;1.98;1.20;;;;;;;;;;5043700;28;20403;-69
2022/06/11 13:48:16;;;;;;;1.90;1.10;;;;;;;;;;5042246;28;20534;-70
2022/06/11 13:50:50;;;;;;;2.97;1.17;;;;;;;;;;5043703;28;20188;-69
2022/06/11 13:56:18;;;;;;;1.15;0.85;;;;;;;;;;5042976;28;20200;-70
2022/06/11 13:58:52;;;;;;;6.25;1.10;;;;;;;;;;5043131;28;20197;-70
2022/06/11 14:01:25;;;;;;;1.42;1.20;;;;;;;;;;5043333;28;20217;-70
2022/06/11 14:04:15;;;;;;;2.47;1.00;;;;;;;;;;5051253;28;20416;-70
2022/06/11 14:06:41;;;;;;;2.55;1.00;;;;;;;;;;5053938;28;20217;-70
2022/06/11 14:12:04;;;;;;;2.97;1.17;;;;;;;;;;5056460;28;20243;-71
2022/06/11 14:14:32;;;;;;;2.65;0.93;;;;;;;;;;5054525;28;20188;-70
2022/06/11 14:16:59;;;;;;;1.27;1.00;;;;;;;;;;5052452;28;20215;-71
2022/06/11 14:19:39;;;;;;;1.88;1.20;;;;;;;;;;5058238;28;20199;-70
2022/06/11 14:22:06;;;;;;;5.40;1.27;;;;;;;;;;5062474;28;20523;-71
2022/06/11 14:24:59;;;;;;;3.03;1.23;;;;;;;;;;5062416;28;20500;-71
2022/06/11 14:27:29;;;;;;;2.25;1.48;;;;;;;;;;5048884;28;20199;-71
2022/06/11 14:30:04;;;;;;;1.90;1.00;;;;;;;;;;5062220;28;20204;-70
2022/06/11 14:32:31;;;;;;;1.83;1.10;;;;;;;;;;5047987;28;20265;-71
2022/06/11 14:35:03;;;;;;;2.35;1.25;;;;;;;;;;5042641;28;20204;-70
2022/06/11 14:37:30;;;;;;;2.78;1.00;;;;;;;;;;5041180;28;20197;-71
2022/06/11 14:40:07;;;;;;;1.20;0.80;;;;;;;;;;5042713;28;20381;-70
2022/06/11 14:42:52;;;;;;;1.65;0.80;;;;;;;;;;5042418;28;20203;-70
2022/06/11 14:45:37;;;;;;;2.97;1.17;;;;;;;;;;5042769;28;20197;-70
2022/06/11 14:48:09;;;;;;;2.55;1.13;;;;;;;;;;5042078;28;20197;-70
2022/06/11 14:50:40;;;;;;;1.05;0.95;;;;;;;;;;5042499;28;20232;-70
2022/06/11 14:53:11;;;;;;;3.42;1.20;;;;;;;;;;5042310;28;20280;-70
2022/06/11 14:55:39;;;;;;;3.45;1.10;;;;;;;;;;5042608;28;20205;-70
2022/06/11 14:58:26;;;;;;;1.73;1.05;;;;;;;;;;5042253;28;20197;-69
2022/06/11 15:00:57;;;;;;;1.35;1.00;;;;;;;;;;5042303;28;20562;-69